Houston, TX

9:47 AM CST on December 27, 2014 (GMT -0600)
SE-Svc-Cntr | Change Station
CLOSE
Current Station
Personal Weather Station
Location: Houston, TX
Elevation: 46 ft
Nearby Weather Stations

Elev 46 ft 29.71 °N, 95.26 °W | Updated 1 second ago

Overcast
Overcast
72.9 °F
Feels Like 72.9 °F
N
3.0
Wind Variable Wind from NE
Gusts 7.0 mph

Today
High -- | Low -- °F
--% Chance of Precip.
Yesterday
High -- | Low -- °F
Precip. -- in
7:14 AM 5:29 PM
Waxing Crescent, 37% visible
Pressure 30.04 in
Visibility 8.0 miles
Clouds Mostly Cloudy 700 ft
Mostly Cloudy 4800 ft
Mostly Cloudy 6000 ft
Dew Point 71 °F
Humidity 95%
Rainfall 0.01 in
Snow Depth Not available.
UV 1 out of 12
Pollen 2.70 out of 12
Air Quality Not available.
Flu Activity Not available.
METAR KHOU 271453Z 16006KT 8SM BKN007 BKN048 BKN060 22/21 A3002 RMK AO2 SLP172 BKN007 V SCT T02170206 51015

More Conditions Fewer Conditions

Pressure 30.04 in
Visibility 8.0 miles
Clouds Mostly Cloudy 700 ft
Mostly Cloudy 4800 ft
Mostly Cloudy 6000 ft
Dew Point 71 °F
Humidity 95%
Rainfall 0.01 in
Snow Depth Not available.
UV 1 out of 12
Pollen 2.70 out of 12
Air Quality Not available.
Flu Activity Not available.
METAR KHOU 271453Z 16006KT 8SM BKN007 BKN048 BKN060 22/21 A3002 RMK AO2 SLP172 BKN007 V SCT T02170206 51015

More Conditions Fewer Conditions

10-Day Weather Forecast

Almanac

Astronomy

Dec. 27, 2014 Rise Set
Actual Time
Civil Twilight
Nautical Twilight
Astronomical Twilight
Moon
Length of Visible Light
Length of Day
Tomorrow will be .
, % of the Moon is Illuminated

Today's Extremes

State Highs State Lows

Community

WunderPhotos

Upload Photos

1,780,935 photos uploaded!

WunderBlogs® & News

Nearby

Air Quality

  Air Quality AQ Index Pollutant
Not available.

Snow Depth

Station Depth Elevation

Earthquake Activity

City Distance Mag. Time & Date
Minimum magnitude displayed is 2.5.

Coastal Water Temperatures

Place Temperature

Nearby Weather Stations